Time,TemperatureF,DewpointF,PressureIn,WindDirection,WindDirectionDegrees,WindSpeedMPH,WindSpeedGustMPH,Humidity,HourlyPrecipIn,Conditions,Clouds,dailyrainin,SoftwareType,DateUTC
2013-04-16 00:04:00,62.2,19.5,25.16,ESE,121,6.7,8.3,19,0.00,,---,0.00,VWS V14.00,2013-04-16 07:04:00,
2013-04-16 00:09:00,61.9,19.2,25.16,SE,140,8.1,8.1,19,0.00,,---,0.00,VWS V14.00,2013-04-16 07:09:00,
2013-04-16 00:14:00,61.5,18.9,25.16,SSE,161,11.0,11.0,19,0.00,,---,0.00,VWS V14.00,2013-04-16 07:14:00,
2013-04-16 00:19:00,61.5,18.9,25.16,SSE,154,8.7,8.7,19,0.00,,---,0.00,VWS V14.00,2013-04-16 07:19:00,
2013-04-16 00:24:00,61.3,18.8,25.16,SE,138,8.1,10.1,19,0.00,,---,0.00,VWS V14.00,2013-04-16 07:24:00,
2013-04-16 00:29:00,61.5,18.9,25.16,SE,135,5.4,8.1,19,0.00,,---,0.00,VWS V14.00,2013-04-16 07:29:00,
2013-04-16 00:34:00,61.3,18.8,25.16,SE,129,5.8,11.0,19,0.00,,---,0.00,VWS V14.00,2013-04-16 07:34:00,
2013-04-16 00:39:00,61.3,18.8,25.16,SE,128,5.8,8.1,19,0.00,,---,0.00,VWS V14.00,2013-04-16 07:39:00,
2013-04-16 00:44:00,61.0,18.5,25.16,SE,140,6.3,6.3,19,0.00,,---,0.00,VWS V14.00,2013-04-16 07:44:00,
2013-04-16 00:49:00,61.0,18.5,25.16,ESE,118,0.0,4.0,19,0.00,,---,0.00,VWS V14.00,2013-04-16 07:49:00,
2013-04-16 00:54:00,61.2,18.6,25.16,SSE,161,3.1,8.1,19,0.00,,---,0.00,VWS V14.00,2013-04-16 07:54:00,
2013-04-16 00:59:00,61.7,19.0,25.16,West,272,5.4,5.4,19,0.00,,---,0.00,VWS V14.00,2013-04-16 07:59:00,
2013-04-16 01:04:00,61.9,19.2,25.16,WNW,291,5.8,10.1,19,0.00,,---,0.00,VWS V14.00,2013-04-16 08:04:00,
2013-04-16 01:09:00,62.1,19.3,25.16,SSE,163,3.6,7.6,19,0.00,,---,0.00,VWS V14.00,2013-04-16 08:09:00,
2013-04-16 01:14:00,62.1,19.3,25.16,WNW,287,10.1,11.0,19,0.00,,---,0.00,VWS V14.00,2013-04-16 08:14:00,
2013-04-16 01:19:00,61.7,19.0,25.16,WSW,242,5.8,7.6,19,0.00,,---,0.00,VWS V14.00,2013-04-16 08:19:00,
2013-04-16 01:24:00,61.7,19.0,25.16,SSW,199,5.4,8.7,19,0.00,,---,0.00,VWS V14.00,2013-04-16 08:24:00,
2013-04-16 01:30:00,61.3,18.8,25.16,SSE,163,4.9,10.1,19,0.00,,---,0.00,VWS V14.00,2013-04-16 08:30:00,
2013-04-16 01:35:00,61.0,18.5,25.16,ESE,122,5.4,7.6,19,0.00,,---,0.00,VWS V14.00,2013-04-16 08:35:00,
2013-04-16 01:40:00,60.6,18.2,25.16,SE,124,10.5,10.5,19,0.00,,---,0.00,VWS V14.00,2013-04-16 08:40:00,
2013-04-16 01:45:00,60.4,18.0,25.16,South,174,8.1,8.1,19,0.00,,---,0.00,VWS V14.00,2013-04-16 08:45:00,
2013-04-16 01:50:00,60.3,17.9,25.16,ESE,106,0.0,4.9,19,0.00,,---,0.00,VWS V14.00,2013-04-16 08:50:00,
2013-04-16 01:55:00,59.9,17.6,25.16,SE,132,4.0,7.6,19,0.00,,---,0.00,VWS V14.00,2013-04-16 08:55:00,
2013-04-16 02:00:00,59.9,17.6,25.16,ESE,123,6.3,8.1,19,0.00,,---,0.00,VWS V14.00,2013-04-16 09:00:00,
2013-04-16 02:05:00,59.7,17.4,25.16,SSE,148,12.3,12.3,19,0.00,,---,0.00,VWS V14.00,2013-04-16 09:05:00,
2013-04-16 02:10:00,59.5,17.3,25.16,South,171,5.4,5.4,19,0.00,,---,0.00,VWS V14.00,2013-04-16 09:10:00,
2013-04-16 02:15:00,59.4,17.1,25.16,ESE,112,10.5,11.0,19,0.00,,---,0.00,VWS V14.00,2013-04-16 09:15:00,
2013-04-16 02:20:00,59.4,17.1,25.16,SSE,168,7.6,7.6,19,0.00,,---,0.00,VWS V14.00,2013-04-16 09:20:00,
2013-04-16 02:25:00,59.4,17.1,25.16,SE,136,5.4,5.8,19,0.00,,---,0.00,VWS V14.00,2013-04-16 09:25:00,
2013-04-16 02:30:00,59.2,17.0,25.16,SSE,159,6.3,8.3,19,0.00,,---,0.00,VWS V14.00,2013-04-16 09:30:00,
2013-04-16 02:35:00,59.4,17.1,25.16,SSE,158,8.7,10.5,19,0.00,,---,0.00,VWS V14.00,2013-04-16 09:35:00,
2013-04-16 02:40:00,59.4,17.1,25.16,SE,142,7.2,7.2,19,0.00,,---,0.00,VWS V14.00,2013-04-16 09:40:00,
2013-04-16 02:45:00,59.4,17.1,25.16,SSE,156,11.0,11.0,19,0.00,,---,0.00,VWS V14.00,2013-04-16 09:45:00,
2013-04-16 02:50:00,59.2,17.0,25.16,SSE,165,3.6,7.6,19,0.00,,---,0.00,VWS V14.00,2013-04-16 09:50:00,
2013-04-16 02:55:00,59.2,17.0,25.16,South,175,5.8,8.7,19,0.00,,---,0.00,VWS V14.00,2013-04-16 09:55:00,
2013-04-16 03:00:00,58.8,16.7,25.16,SE,127,5.8,10.1,19,0.00,,---,0.00,VWS V14.00,2013-04-16 10:00:00,
2013-04-16 03:05:00,58.8,16.7,25.16,SSE,151,6.3,6.3,19,0.00,,---,0.00,VWS V14.00,2013-04-16 10:05:00,
2013-04-16 03:10:00,58.6,16.5,25.16,SSE,151,0.0,0.0,19,0.00,,---,0.00,VWS V14.00,2013-04-16 10:10:00,
2013-04-16 03:15:00,58.8,16.7,25.16,ESE,112,3.6,5.8,19,0.00,,---,0.00,VWS V14.00,2013-04-16 10:15:00,
2013-04-16 03:20:00,58.1,16.1,25.16,SE,142,3.6,6.3,19,0.00,,---,0.00,VWS V14.00,2013-04-16 10:20:00,
2013-04-16 03:25:00,57.9,15.9,25.16,ESE,108,4.0,4.9,19,0.00,,---,0.00,VWS V14.00,2013-04-16 10:25:00,
2013-04-16 03:30:00,57.7,15.8,25.16,ESE,107,5.4,6.3,19,0.00,,---,0.00,VWS V14.00,2013-04-16 10:30:00,
2013-04-16 03:35:00,57.6,13.1,25.16,SSE,158,6.7,8.7,17,0.00,,---,0.00,VWS V14.00,2013-04-16 10:35:00,
2013-04-16 03:40:00,57.6,15.6,25.16,SE,129,7.6,7.6,19,0.00,,---,0.00,VWS V14.00,2013-04-16 10:40:00,
2013-04-16 03:45:00,57.6,13.1,25.16,SE,136,8.1,8.3,17,0.00,,---,0.00,VWS V14.00,2013-04-16 10:45:00,
2013-04-16 03:50:00,57.7,15.8,25.16,SSE,165,8.1,11.0,19,0.00,,---,0.00,VWS V14.00,2013-04-16 10:50:00,
2013-04-16 03:55:00,57.9,15.9,25.16,SE,135,10.1,10.1,19,0.00,,---,0.00,VWS V14.00,2013-04-16 10:55:00,
2013-04-16 04:00:00,57.9,13.4,25.16,SE,129,5.4,8.3,17,0.00,,---,0.00,VWS V14.00,2013-04-16 11:00:00,
2013-04-16 04:05:00,57.9,13.4,25.16,ESE,118,3.6,3.6,17,0.00,,---,0.00,VWS V14.00,2013-04-16 11:05:00,
2013-04-16 04:11:00,57.4,12.9,25.16,ESE,115,0.0,2.2,17,0.00,,---,0.00,VWS V14.00,2013-04-16 11:11:00,
2013-04-16 04:16:00,56.7,12.4,25.16,SE,134,0.0,0.0,17,0.00,,---,0.00,VWS V14.00,2013-04-16 11:16:00,
2013-04-16 04:21:00,56.3,12.1,25.16,ESE,113,4.0,4.9,17,0.00,,---,0.00,VWS V14.00,2013-04-16 11:21:00,
2013-04-16 04:26:00,56.1,11.9,25.16,South,184,2.7,3.6,17,0.00,,---,0.00,VWS V14.00,2013-04-16 11:26:00,
2013-04-16 04:31:00,55.4,11.3,25.16,SSW,195,0.0,0.0,17,0.00,,---,0.00,VWS V14.00,2013-04-16 11:31:00,
2013-04-16 04:36:00,55.2,12.5,25.16,SE,142,4.9,5.4,18,0.00,,---,0.00,VWS V14.00,2013-04-16 11:36:00,
2013-04-16 04:41:00,55.6,11.5,25.16,SE,135,8.3,8.7,17,0.00,,---,0.00,VWS V14.00,2013-04-16 11:41:00,
2013-04-16 04:46:00,55.9,11.8,25.16,ESE,122,5.4,5.4,17,0.00,,---,0.00,VWS V14.00,2013-04-16 11:46:00,
2013-04-16 04:51:00,55.8,11.6,25.16,SSW,203,3.1,4.9,17,0.00,,---,0.00,VWS V14.00,2013-04-16 11:51:00,
2013-04-16 04:56:00,55.2,12.5,25.16,SSW,202,0.0,0.0,18,0.00,,---,0.00,VWS V14.00,2013-04-16 11:56:00,
2013-04-16 05:01:00,54.5,11.9,25.16,South,189,0.0,0.0,18,0.00,,---,0.00,VWS V14.00,2013-04-16 12:01:00,
2013-04-16 05:06:00,54.5,11.9,25.16,SSE,156,0.0,5.4,18,0.00,,---,0.00,VWS V14.00,2013-04-16 12:06:00,
2013-04-16 05:11:00,54.3,11.7,25.16,SSE,168,0.0,0.0,18,0.00,,---,0.00,VWS V14.00,2013-04-16 12:11:00,
2013-04-16 05:16:00,54.1,11.6,25.16,SSE,168,0.0,0.0,18,0.00,,---,0.00,VWS V14.00,2013-04-16 12:16:00,
2013-04-16 05:21:00,54.0,11.4,25.16,SSW,201,0.0,2.7,18,0.00,,---,0.00,VWS V14.00,2013-04-16 12:21:00,
2013-04-16 05:27:00,53.8,11.3,25.16,South,177,3.6,4.0,18,0.00,,---,0.00,VWS V14.00,2013-04-16 12:27:00,
2013-04-16 05:32:00,53.6,11.1,25.16,SSE,149,0.0,2.7,18,0.00,,---,0.00,VWS V14.00,2013-04-16 12:32:00,
2013-04-16 05:37:00,53.4,11.0,25.16,SW,214,3.6,4.0,18,0.00,,---,0.00,VWS V14.00,2013-04-16 12:37:00,
2013-04-16 05:42:00,53.2,10.9,25.16,SW,230,0.0,0.0,18,0.00,,---,0.00,VWS V14.00,2013-04-16 12:42:00,
2013-04-16 05:47:00,53.1,10.7,25.16,South,187,5.4,5.4,18,0.00,,---,0.00,VWS V14.00,2013-04-16 12:47:00,
2013-04-16 05:52:00,53.4,11.0,25.16,ESE,120,10.5,10.5,18,0.00,,---,0.00,VWS V14.00,2013-04-16 12:52:00,
2013-04-16 05:57:00,55.2,12.5,25.16,South,187,6.3,10.5,18,0.00,,---,0.00,VWS V14.00,2013-04-16 12:57:00,
2013-04-16 06:02:00,55.9,11.8,25.16,South,176,5.8,8.7,17,0.00,,---,0.00,VWS V14.00,2013-04-16 13:02:00,
2013-04-16 06:08:00,56.1,11.9,25.16,East,88,5.8,5.8,17,0.00,,---,0.00,VWS V14.00,2013-04-16 13:08:00,
2013-04-16 06:13:00,56.8,12.5,25.16,South,172,6.3,6.3,17,0.00,,---,0.00,VWS V14.00,2013-04-16 13:13:00,
2013-04-16 06:18:00,57.4,12.9,25.16,ESE,119,8.1,8.7,17,0.00,,---,0.00,VWS V14.00,2013-04-16 13:18:00,
2013-04-16 06:23:00,57.4,12.9,25.16,ESE,122,10.5,12.3,17,0.00,,---,0.00,VWS V14.00,2013-04-16 13:23:00,
2013-04-16 06:28:00,57.7,13.2,25.16,SE,128,13.2,13.2,17,0.00,,---,0.00,VWS V14.00,2013-04-16 13:28:00,
2013-04-16 06:33:00,58.1,13.5,25.16,ESE,114,8.1,10.1,17,0.00,,---,0.00,VWS V14.00,2013-04-16 13:33:00,
2013-04-16 06:38:00,58.5,13.8,25.16,ESE,123,5.8,12.8,17,0.00,,---,0.00,VWS V14.00,2013-04-16 13:38:00,
2013-04-16 06:43:00,59.2,14.4,25.16,South,187,10.1,10.1,17,0.00,,---,0.00,VWS V14.00,2013-04-16 13:43:00,
2013-04-16 06:48:00,60.1,17.7,25.16,SE,146,8.3,10.1,19,0.00,,---,0.00,VWS V14.00,2013-04-16 13:48:00,
2013-04-16 06:53:00,60.3,17.9,25.16,SE,124,8.3,10.5,19,0.00,,---,0.00,VWS V14.00,2013-04-16 13:53:00,
2013-04-16 06:58:00,60.6,18.2,25.16,SE,135,8.7,8.7,19,0.00,,---,0.00,VWS V14.00,2013-04-16 13:58:00,
2013-04-16 07:03:00,61.2,18.6,25.16,SE,127,14.1,14.1,19,0.00,,---,0.00,VWS V14.00,2013-04-16 14:03:00,
2013-04-16 07:08:00,61.3,18.8,25.16,SSE,166,10.5,13.2,19,0.00,,---,0.00,VWS V14.00,2013-04-16 14:08:00,
2013-04-16 07:13:00,61.7,19.0,25.16,South,174,8.1,10.5,19,0.00,,---,0.00,VWS V14.00,2013-04-16 14:13:00,
2013-04-16 07:18:00,61.9,19.2,25.16,SSE,148,11.4,11.4,19,0.00,,---,0.00,VWS V14.00,2013-04-16 14:18:00,
2013-04-16 07:23:00,62.2,19.5,25.16,SE,127,10.5,11.0,19,0.00,,---,0.00,VWS V14.00,2013-04-16 14:23:00,
2013-04-16 07:28:00,62.6,18.5,25.19,SSE,152,8.7,10.1,18,0.00,,---,0.00,VWS V14.00,2013-04-16 14:28:00,
2013-04-16 07:33:00,63.0,18.8,25.19,SSE,157,8.7,8.7,18,0.00,,---,0.00,VWS V14.00,2013-04-16 14:33:00,
2013-04-16 07:38:00,63.0,18.8,25.19,ESE,121,5.8,6.3,18,0.00,,---,0.00,VWS V14.00,2013-04-16 14:38:00,
2013-04-16 07:43:00,63.5,19.3,25.19,South,172,8.3,8.3,18,0.00,,---,0.00,VWS V14.00,2013-04-16 14:43:00,
2013-04-16 07:48:00,63.9,19.6,25.19,SSE,151,5.8,7.6,18,0.00,,---,0.00,VWS V14.00,2013-04-16 14:48:00,
2013-04-16 07:53:00,63.7,19.4,25.19,South,178,5.4,5.8,18,0.00,,---,0.00,VWS V14.00,2013-04-16 14:53:00,
2013-04-16 07:58:00,64.2,19.9,25.19,SE,134,11.0,13.2,18,0.00,,---,0.00,VWS V14.00,2013-04-16 14:58:00,
2013-04-16 08:03:00,64.6,20.1,25.19,SE,139,8.3,11.0,18,0.00,,---,0.00,VWS V14.00,2013-04-16 15:03:00,
2013-04-16 08:08:00,64.8,20.3,25.19,SE,125,8.1,8.7,18,0.00,,---,0.00,VWS V14.00,2013-04-16 15:08:00,
2013-04-16 08:13:00,65.1,20.6,25.19,SSE,157,5.4,6.3,18,0.00,,---,0.00,VWS V14.00,2013-04-16 15:13:00,
2013-04-16 08:18:00,65.7,21.0,25.19,ESE,113,5.4,5.8,18,0.00,,---,0.00,VWS V14.00,2013-04-16 15:18:00,
2013-04-16 08:24:00,66.4,20.3,25.19,South,169,7.6,8.1,17,0.00,,---,0.00,VWS V14.00,2013-04-16 15:24:00,
2013-04-16 08:29:00,66.9,20.7,25.19,SSW,202,6.7,6.7,17,0.00,,---,0.00,VWS V14.00,2013-04-16 15:29:00,
2013-04-16 08:34:00,67.5,21.2,25.19,SSW,205,8.1,11.0,17,0.00,,---,0.00,VWS V14.00,2013-04-16 15:34:00,
2013-04-16 08:39:00,67.8,21.5,25.19,SE,142,8.3,8.3,17,0.00,,---,0.00,VWS V14.00,2013-04-16 15:39:00,
2013-04-16 08:44:00,67.5,21.2,25.19,South,178,10.5,10.5,17,0.00,,---,0.00,VWS V14.00,2013-04-16 15:44:00,
2013-04-16 08:49:00,67.3,21.0,25.19,SSE,165,10.5,15.0,17,0.00,,---,0.00,VWS V14.00,2013-04-16 15:49:00,
2013-04-16 08:54:00,67.5,21.2,25.19,SSW,194,5.8,7.6,17,0.00,,---,0.00,VWS V14.00,2013-04-16 15:54:00,
2013-04-16 08:59:00,68.2,21.7,25.19,SSE,159,8.7,11.0,17,0.00,,---,0.00,VWS V14.00,2013-04-16 15:59:00,
2013-04-16 09:04:00,68.0,21.6,25.19,South,174,8.3,11.0,17,0.00,,---,0.00,VWS V14.00,2013-04-16 16:04:00,
2013-04-16 09:09:00,68.0,21.6,25.19,South,173,8.3,8.7,17,0.00,,---,0.00,VWS V14.00,2013-04-16 16:09:00,
2013-04-16 09:14:00,68.4,21.9,25.19,South,189,10.1,12.3,17,0.00,,---,0.00,VWS V14.00,2013-04-16 16:14:00,
2013-04-16 09:19:00,68.9,22.3,25.19,SSE,167,8.1,10.5,17,0.00,,---,0.00,VWS V14.00,2013-04-16 16:19:00,
2013-04-16 09:24:00,69.3,22.6,25.19,SW,224,8.3,9.2,17,0.00,,---,0.00,VWS V14.00,2013-04-16 16:24:00,
2013-04-16 09:29:00,69.4,22.8,25.19,SSE,164,6.3,10.1,17,0.00,,---,0.00,VWS V14.00,2013-04-16 16:29:00,
2013-04-16 09:34:00,69.8,23.1,25.19,SW,232,8.1,8.7,17,0.00,,---,0.00,VWS V14.00,2013-04-16 16:34:00,
2013-04-16 09:39:00,70.0,23.2,25.19,SW,232,8.1,13.2,17,0.00,,---,0.00,VWS V14.00,2013-04-16 16:39:00,
2013-04-16 09:44:00,70.0,23.2,25.19,SSW,202,12.8,12.8,17,0.00,,---,0.00,VWS V14.00,2013-04-16 16:44:00,
2013-04-16 09:49:00,70.0,23.2,25.19,SSE,167,10.1,10.5,17,0.00,,---,0.00,VWS V14.00,2013-04-16 16:49:00,
2013-04-16 09:54:00,70.2,23.4,25.19,SSW,213,19.2,19.2,17,0.00,,---,0.00,VWS V14.00,2013-04-16 16:54:00,
2013-04-16 09:59:00,70.2,23.4,25.16,SSW,196,11.9,14.1,17,0.00,,---,0.00,VWS V14.00,2013-04-16 16:59:00,
2013-04-16 10:04:00,70.3,23.5,25.16,SW,220,15.4,15.4,17,0.00,,---,0.00,VWS V14.00,2013-04-16 17:04:00,
2013-04-16 10:09:00,70.7,23.8,25.16,SSW,209,11.0,14.1,17,0.00,,---,0.00,VWS V14.00,2013-04-16 17:09:00,
2013-04-16 10:14:00,70.9,23.9,25.19,SSW,203,15.0,15.0,17,0.00,,---,0.00,VWS V14.00,2013-04-16 17:14:00,
2013-04-16 10:19:00,71.1,24.1,25.19,SW,218,13.2,16.8,17,0.00,,---,0.00,VWS V14.00,2013-04-16 17:19:00,
2013-04-16 10:24:00,71.2,24.2,25.19,SW,227,14.5,15.4,17,0.00,,---,0.00,VWS V14.00,2013-04-16 17:24:00,
2013-04-16 10:29:00,70.9,23.9,25.19,SW,230,8.1,8.1,17,0.00,,---,0.00,VWS V14.00,2013-04-16 17:29:00,
2013-04-16 10:34:00,71.4,24.4,25.19,South,185,8.1,15.4,17,0.00,,---,0.00,VWS V14.00,2013-04-16 17:34:00,
2013-04-16 10:39:00,71.6,23.1,25.19,SSW,210,7.6,12.8,16,0.00,,---,0.00,VWS V14.00,2013-04-16 17:39:00,
2013-04-16 10:45:00,71.8,23.2,25.19,WSW,247,18.3,18.3,16,0.00,,---,0.00,VWS V14.00,2013-04-16 17:45:00,
2013-04-16 10:50:00,71.6,23.1,25.19,SW,221,12.8,12.8,16,0.00,,---,0.00,VWS V14.00,2013-04-16 17:50:00,
2013-04-16 10:55:00,72.1,23.5,25.19,SSE,161,5.8,11.0,16,0.00,,---,0.00,VWS V14.00,2013-04-16 17:55:00,
2013-04-16 11:00:00,72.9,24.1,25.19,West,262,13.2,16.3,16,0.00,,---,0.00,VWS V14.00,2013-04-16 18:00:00,
2013-04-16 11:05:00,72.7,23.9,25.19,South,175,8.7,12.3,16,0.00,,---,0.00,VWS V14.00,2013-04-16 18:05:00,
2013-04-16 11:10:00,72.9,24.1,25.19,South,189,5.4,5.8,16,0.00,,---,0.00,VWS V14.00,2013-04-16 18:10:00,
2013-04-16 11:15:00,73.4,24.5,25.16,SSE,166,5.8,8.7,16,0.00,,---,0.00,VWS V14.00,2013-04-16 18:15:00,
2013-04-16 11:20:00,73.9,25.0,25.16,SE,141,8.7,11.0,16,0.00,,---,0.00,VWS V14.00,2013-04-16 18:20:00,
2013-04-16 11:25:00,74.1,25.1,25.16,South,169,16.8,16.8,16,0.00,,---,0.00,VWS V14.00,2013-04-16 18:25:00,
2013-04-16 11:30:00,74.3,25.2,25.16,SW,225,5.8,12.8,16,0.00,,---,0.00,VWS V14.00,2013-04-16 18:30:00,
2013-04-16 11:35:00,75.0,25.8,25.16,SW,220,12.8,15.9,16,0.00,,---,0.00,VWS V14.00,2013-04-16 18:35:00,
2013-04-16 11:40:00,74.8,25.7,25.16,SSW,195,11.0,15.4,16,0.00,,---,0.00,VWS V14.00,2013-04-16 18:40:00,
2013-04-16 11:45:00,74.3,25.2,25.16,SW,216,10.5,16.8,16,0.00,,---,0.00,VWS V14.00,2013-04-16 18:45:00,
2013-04-16 11:50:00,74.7,25.5,25.16,SSW,199,5.4,6.7,16,0.00,,---,0.00,VWS V14.00,2013-04-16 18:50:00,
2013-04-16 11:55:00,74.7,25.5,25.16,SSW,208,12.8,17.4,16,0.00,,---,0.00,VWS V14.00,2013-04-16 18:55:00,
2013-04-16 12:00:00,74.3,25.2,25.16,SSW,202,6.3,15.4,16,0.00,,---,0.00,VWS V14.00,2013-04-16 19:00:00,
2013-04-16 12:05:00,74.5,25.4,25.16,NW,314,11.0,12.8,16,0.00,,---,0.00,VWS V14.00,2013-04-16 19:05:00,
2013-04-16 12:10:00,74.5,25.4,25.16,SSW,209,10.5,10.5,16,0.00,,---,0.00,VWS V14.00,2013-04-16 19:10:00,
2013-04-16 12:15:00,75.2,24.4,25.13,SSW,193,13.2,15.9,15,0.00,,---,0.00,VWS V14.00,2013-04-16 19:15:00,
2013-04-16 12:20:00,75.4,24.6,25.13,South,188,11.0,11.0,15,0.00,,---,0.00,VWS V14.00,2013-04-16 19:20:00,
2013-04-16 12:25:00,75.2,24.4,25.13,SW,230,20.1,20.1,15,0.00,,---,0.00,VWS V14.00,2013-04-16 19:25:00,
2013-04-16 12:30:00,75.2,24.4,25.16,South,183,22.4,22.4,15,0.00,,---,0.00,VWS V14.00,2013-04-16 19:30:00,
2013-04-16 12:35:00,75.6,24.7,25.16,WSW,251,17.4,22.4,15,0.00,,---,0.00,VWS V14.00,2013-04-16 19:35:00,
2013-04-16 12:40:00,75.6,24.7,25.16,SSW,201,8.7,10.1,15,0.00,,---,0.00,VWS V14.00,2013-04-16 19:40:00,
2013-04-16 12:45:00,75.6,24.7,25.13,South,186,8.7,12.3,15,0.00,,---,0.00,VWS V14.00,2013-04-16 19:45:00,
2013-04-16 12:50:00,76.1,25.1,25.13,SSE,164,8.7,10.1,15,0.00,,---,0.00,VWS V14.00,2013-04-16 19:50:00,
2013-04-16 12:55:00,76.3,25.3,25.13,SW,216,13.2,13.2,15,0.00,,---,0.00,VWS V14.00,2013-04-16 19:55:00,
2013-04-16 13:00:00,76.5,25.4,25.13,SSW,202,13.2,17.9,15,0.00,,---,0.00,VWS V14.00,2013-04-16 20:00:00,
2013-04-16 13:05:00,77.0,25.9,25.13,South,170,17.9,21.5,15,0.00,,---,0.00,VWS V14.00,2013-04-16 20:05:00,
2013-04-16 13:10:00,77.2,26.0,25.13,South,174,8.7,14.1,15,0.00,,---,0.00,VWS V14.00,2013-04-16 20:10:00,
2013-04-16 13:15:00,77.2,26.0,25.13,South,172,22.8,23.3,15,0.00,,---,0.00,VWS V14.00,2013-04-16 20:15:00,
2013-04-16 13:20:00,77.0,25.9,25.13,SW,236,8.3,17.4,15,0.00,,---,0.00,VWS V14.00,2013-04-16 20:20:00,
2013-04-16 13:25:00,77.5,26.3,25.13,WSW,245,10.5,20.1,15,0.00,,---,0.00,VWS V14.00,2013-04-16 20:25:00,
2013-04-16 13:30:00,77.7,26.4,25.13,SSW,210,10.1,10.1,15,0.00,,---,0.00,VWS V14.00,2013-04-16 20:30:00,
2013-04-16 13:35:00,77.5,26.3,25.13,SSW,199,10.5,11.4,15,0.00,,---,0.00,VWS V14.00,2013-04-16 20:35:00,
2013-04-16 13:41:00,77.7,26.4,25.13,SW,229,17.4,17.9,15,0.00,,---,0.00,VWS V14.00,2013-04-16 20:41:00,
2013-04-16 13:46:00,77.9,26.6,25.13,SSW,203,14.1,23.7,15,0.00,,---,0.00,VWS V14.00,2013-04-16 20:46:00,
2013-04-16 13:51:00,77.2,26.0,25.13,WSW,243,14.5,18.8,15,0.00,,---,0.00,VWS V14.00,2013-04-16 20:51:00,
2013-04-16 13:56:00,77.2,26.0,25.13,SSW,197,17.4,24.2,15,0.00,,---,0.00,VWS V14.00,2013-04-16 20:56:00,
2013-04-16 14:01:00,77.5,26.3,25.13,South,183,8.7,10.1,15,0.00,,---,0.00,VWS V14.00,2013-04-16 21:01:00,
2013-04-16 14:06:00,77.0,25.9,25.13,South,189,15.0,15.0,15,0.00,,---,0.00,VWS V14.00,2013-04-16 21:06:00,
2013-04-16 14:11:00,77.0,25.9,25.13,SW,236,10.5,11.0,15,0.00,,---,0.00,VWS V14.00,2013-04-16 21:11:00,
2013-04-16 14:16:00,77.5,26.3,25.13,SW,214,10.5,15.0,15,0.00,,---,0.00,VWS V14.00,2013-04-16 21:16:00,
2013-04-16 14:21:00,77.7,26.4,25.13,SE,131,0.0,7.2,15,0.00,,---,0.00,VWS V14.00,2013-04-16 21:21:00,
2013-04-16 14:26:00,77.5,26.3,25.10,South,184,12.8,12.8,15,0.00,,---,0.00,VWS V14.00,2013-04-16 21:26:00,
2013-04-16 14:31:00,77.7,26.4,25.10,SE,134,10.1,11.0,15,0.00,,---,0.00,VWS V14.00,2013-04-16 21:31:00,
2013-04-16 14:36:00,77.9,26.6,25.10,SW,214,14.5,14.5,15,0.00,,---,0.00,VWS V14.00,2013-04-16 21:36:00,
2013-04-16 14:41:00,78.1,26.7,25.10,South,181,15.4,18.8,15,0.00,,---,0.00,VWS V14.00,2013-04-16 21:41:00,
2013-04-16 14:46:00,78.1,26.7,25.10,SSW,204,17.0,17.0,15,0.00,,---,0.00,VWS V14.00,2013-04-16 21:46:00,
2013-04-16 14:51:00,78.1,26.7,25.10,SSE,165,15.4,16.3,15,0.00,,---,0.00,VWS V14.00,2013-04-16 21:51:00,
2013-04-16 14:57:00,78.1,26.7,25.10,South,185,10.5,19.7,15,0.00,,---,0.00,VWS V14.00,2013-04-16 21:57:00,
2013-04-16 15:02:00,77.7,26.4,25.10,SSW,193,13.6,16.8,15,0.00,,---,0.00,VWS V14.00,2013-04-16 22:02:00,
2013-04-16 15:07:00,77.5,26.3,25.10,SSW,203,20.1,20.1,15,0.00,,---,0.00,VWS V14.00,2013-04-16 22:07:00,
2013-04-16 15:12:00,77.4,26.1,25.10,South,184,12.8,12.8,15,0.00,,---,0.00,VWS V14.00,2013-04-16 22:12:00,
2013-04-16 15:17:00,77.5,26.3,25.10,South,189,17.9,17.9,15,0.00,,---,0.00,VWS V14.00,2013-04-16 22:17:00,
2013-04-16 15:22:00,77.5,26.3,25.10,SSW,207,17.4,24.2,15,0.00,,---,0.00,VWS V14.00,2013-04-16 22:22:00,
2013-04-16 15:27:00,77.4,26.1,25.10,SW,219,13.2,15.4,15,0.00,,---,0.00,VWS V14.00,2013-04-16 22:27:00,
2013-04-16 15:32:00,77.9,26.6,25.10,SE,132,8.1,11.0,15,0.00,,---,0.00,VWS V14.00,2013-04-16 22:32:00,
2013-04-16 15:37:00,78.1,26.7,25.10,SSE,165,18.8,18.8,15,0.00,,---,0.00,VWS V14.00,2013-04-16 22:37:00,
2013-04-16 15:42:00,77.5,26.3,25.10,South,186,15.4,15.4,15,0.00,,---,0.00,VWS V14.00,2013-04-16 22:42:00,
2013-04-16 15:47:00,77.4,26.1,25.10,South,172,10.1,15.0,15,0.00,,---,0.00,VWS V14.00,2013-04-16 22:47:00,
2013-04-16 15:52:00,77.4,26.1,25.10,South,191,13.6,13.6,15,0.00,,---,0.00,VWS V14.00,2013-04-16 22:52:00,
2013-04-16 15:57:00,77.2,26.0,25.10,South,177,11.0,11.0,15,0.00,,---,0.00,VWS V14.00,2013-04-16 22:57:00,
2013-04-16 16:02:00,77.2,26.0,25.10,SSW,205,19.2,19.2,15,0.00,,---,0.00,VWS V14.00,2013-04-16 23:02:00,
2013-04-16 16:07:00,76.8,25.7,25.10,SW,226,17.4,17.4,15,0.00,,---,0.00,VWS V14.00,2013-04-16 23:07:00,
2013-04-16 16:12:00,76.5,25.4,25.10,South,184,10.5,10.5,15,0.00,,---,0.00,VWS V14.00,2013-04-16 23:12:00,
2013-04-16 16:17:00,76.3,25.3,25.10,SW,226,11.0,12.8,15,0.00,,---,0.00,VWS V14.00,2013-04-16 23:17:00,
2013-04-16 16:22:00,76.5,25.4,25.10,SW,224,7.6,12.3,15,0.00,,---,0.00,VWS V14.00,2013-04-16 23:22:00,
2013-04-16 16:27:00,76.5,25.4,25.10,SW,226,17.0,24.2,15,0.00,,---,0.00,VWS V14.00,2013-04-16 23:27:00,
2013-04-16 16:32:00,75.7,24.9,25.10,South,190,20.6,20.6,15,0.00,,---,0.00,VWS V14.00,2013-04-16 23:32:00,
2013-04-16 16:37:00,75.4,24.6,25.10,SSW,210,17.0,21.9,15,0.00,,---,0.00,VWS V14.00,2013-04-16 23:37:00,
2013-04-16 16:42:00,75.4,24.6,25.10,SSE,158,9.2,14.1,15,0.00,,---,0.00,VWS V14.00,2013-04-16 23:42:00,
2013-04-16 16:47:00,75.4,24.6,25.10,WSW,248,26.2,26.2,15,0.00,,---,0.00,VWS V14.00,2013-04-16 23:47:00,
2013-04-16 16:52:00,74.8,25.7,25.10,SSW,205,15.0,15.9,16,0.00,,---,0.00,VWS V14.00,2013-04-16 23:52:00,
2013-04-16 16:57:00,74.8,25.7,25.10,South,180,8.3,10.5,16,0.00,,---,0.00,VWS V14.00,2013-04-16 23:57:00,
2013-04-16 17:02:00,74.7,25.5,25.10,WSW,239,15.9,26.2,16,0.00,,---,0.00,VWS V14.00,2013-04-17 00:02:00,
2013-04-16 17:07:00,74.3,25.2,25.10,SW,226,16.3,21.0,16,0.00,,---,0.00,VWS V14.00,2013-04-17 00:07:00,
2013-04-16 17:12:00,74.1,25.1,25.10,SSW,208,15.4,15.4,16,0.00,,---,0.00,VWS V14.00,2013-04-17 00:12:00,
2013-04-16 17:17:00,73.9,25.0,25.10,SW,218,8.7,12.8,16,0.00,,---,0.00,VWS V14.00,2013-04-17 00:17:00,
2013-04-16 17:22:00,73.8,24.8,25.10,South,178,8.7,12.3,16,0.00,,---,0.00,VWS V14.00,2013-04-17 00:22:00,
2013-04-16 17:27:00,73.4,24.5,25.10,SSW,202,8.1,13.2,16,0.00,,---,0.00,VWS V14.00,2013-04-17 00:27:00,
2013-04-16 17:32:00,73.2,24.4,25.10,SW,233,17.0,19.2,16,0.00,,---,0.00,VWS V14.00,2013-04-17 00:32:00,
2013-04-16 17:37:00,72.9,24.1,25.10,South,184,22.4,22.4,16,0.00,,---,0.00,VWS V14.00,2013-04-17 00:37:00,
2013-04-16 17:42:00,72.7,23.9,25.10,SW,221,10.5,10.5,16,0.00,,---,0.00,VWS V14.00,2013-04-17 00:42:00,
2013-04-16 17:47:00,72.3,23.6,25.10,SW,219,13.2,15.9,16,0.00,,---,0.00,VWS V14.00,2013-04-17 00:47:00,
2013-04-16 17:52:00,72.1,23.5,25.10,SW,227,15.0,19.2,16,0.00,,---,0.00,VWS V14.00,2013-04-17 00:52:00,
2013-04-16 17:58:00,71.8,23.2,25.10,SW,217,12.8,16.8,16,0.00,,---,0.00,VWS V14.00,2013-04-17 00:58:00,
2013-04-16 18:03:00,71.6,23.1,25.10,SW,225,22.4,26.2,16,0.00,,---,0.00,VWS V14.00,2013-04-17 01:03:00,
2013-04-16 18:08:00,71.2,24.2,25.10,SSW,209,15.0,15.4,17,0.00,,---,0.00,VWS V14.00,2013-04-17 01:08:00,
2013-04-16 18:13:00,70.9,23.9,25.10,SSE,167,18.8,20.1,17,0.00,,---,0.00,VWS V14.00,2013-04-17 01:13:00,
2013-04-16 18:18:00,70.5,23.6,25.10,SSW,198,14.5,19.2,17,0.00,,---,0.00,VWS V14.00,2013-04-17 01:18:00,
2013-04-16 18:23:00,70.3,23.5,25.10,SSW,209,11.0,15.9,17,0.00,,---,0.00,VWS V14.00,2013-04-17 01:23:00,
2013-04-16 18:28:00,70.0,23.2,25.10,SSW,207,11.0,15.4,17,0.00,,---,0.00,VWS V14.00,2013-04-17 01:28:00,
2013-04-16 18:33:00,69.4,22.8,25.10,SSW,211,15.4,20.6,17,0.00,,---,0.00,VWS V14.00,2013-04-17 01:33:00,
2013-04-16 18:38:00,69.3,22.6,25.10,SW,223,12.8,15.4,17,0.00,,---,0.00,VWS V14.00,2013-04-17 01:38:00,
2013-04-16 18:43:00,69.1,22.5,25.10,SSE,166,14.5,19.2,17,0.00,,---,0.00,VWS V14.00,2013-04-17 01:43:00,
2013-04-16 18:48:00,68.9,22.3,25.10,SW,222,13.2,15.4,17,0.00,,---,0.00,VWS V14.00,2013-04-17 01:48:00,
2013-04-16 18:53:00,68.7,22.2,25.10,SSW,211,15.4,15.4,17,0.00,,---,0.00,VWS V14.00,2013-04-17 01:53:00,
2013-04-16 18:58:00,68.5,22.0,25.10,WSW,242,16.3,16.3,17,0.00,,---,0.00,VWS V14.00,2013-04-17 01:58:00,
2013-04-16 19:03:00,68.4,21.9,25.10,WSW,251,17.4,22.8,17,0.00,,---,0.00,VWS V14.00,2013-04-17 02:03:00,
2013-04-16 19:08:00,68.2,21.7,25.10,SSW,205,12.3,12.8,17,0.00,,---,0.00,VWS V14.00,2013-04-17 02:08:00,
2013-04-16 19:13:00,68.2,21.7,25.10,SW,218,12.8,12.8,17,0.00,,---,0.00,VWS V14.00,2013-04-17 02:13:00,
2013-04-16 19:18:00,68.0,21.6,25.10,SSW,193,13.2,13.2,17,0.00,,---,0.00,VWS V14.00,2013-04-17 02:18:00,
2013-04-16 19:23:00,67.8,21.5,25.10,SW,219,16.3,18.8,17,0.00,,---,0.00,VWS V14.00,2013-04-17 02:23:00,
2013-04-16 19:28:00,67.6,21.3,25.10,SSW,200,15.4,15.4,17,0.00,,---,0.00,VWS V14.00,2013-04-17 02:28:00,
2013-04-16 19:33:00,67.6,21.3,25.10,WSW,244,13.2,15.4,17,0.00,,---,0.00,VWS V14.00,2013-04-17 02:33:00,
2013-04-16 19:38:00,67.5,21.2,25.10,SSW,209,10.1,12.3,17,0.00,,---,0.00,VWS V14.00,2013-04-17 02:38:00,
2013-04-16 19:43:00,67.3,21.0,25.10,SSW,204,13.6,13.6,17,0.00,,---,0.00,VWS V14.00,2013-04-17 02:43:00,
2013-04-16 19:48:00,66.9,20.7,25.10,SSW,204,15.9,15.9,17,0.00,,---,0.00,VWS V14.00,2013-04-17 02:48:00,
2013-04-16 19:53:00,66.9,20.7,25.10,SSW,200,13.6,15.4,17,0.00,,---,0.00,VWS V14.00,2013-04-17 02:53:00,
2013-04-16 19:58:00,66.7,20.6,25.13,SW,216,8.1,8.7,17,0.00,,---,0.00,VWS V14.00,2013-04-17 02:58:00,
2013-04-16 20:03:00,66.6,20.4,25.13,SW,222,8.1,10.5,17,0.00,,---,0.00,VWS V14.00,2013-04-17 03:03:00,
2013-04-16 20:08:00,66.6,20.4,25.13,SW,216,13.2,13.6,17,0.00,,---,0.00,VWS V14.00,2013-04-17 03:08:00,
2013-04-16 20:13:00,66.4,20.3,25.13,SSW,193,13.6,15.4,17,0.00,,---,0.00,VWS V14.00,2013-04-17 03:13:00,
2013-04-16 20:18:00,66.4,20.3,25.13,South,182,13.2,13.2,17,0.00,,---,0.00,VWS V14.00,2013-04-17 03:18:00,
2013-04-16 20:23:00,66.4,20.3,25.13,SSW,207,8.1,15.0,17,0.00,,---,0.00,VWS V14.00,2013-04-17 03:23:00,
2013-04-16 20:29:00,66.2,20.1,25.13,SSW,196,8.1,9.6,17,0.00,,---,0.00,VWS V14.00,2013-04-17 03:29:00,
2013-04-16 20:34:00,65.8,21.2,25.13,SW,222,12.8,12.8,18,0.00,,---,0.00,VWS V14.00,2013-04-17 03:34:00,
2013-04-16 20:39:00,65.8,21.2,25.13,SSW,192,6.3,8.3,18,0.00,,---,0.00,VWS V14.00,2013-04-17 03:39:00,
2013-04-16 20:44:00,65.7,21.0,25.13,SSW,213,10.1,10.5,18,0.00,,---,0.00,VWS V14.00,2013-04-17 03:44:00,
2013-04-16 20:49:00,65.3,20.7,25.13,SW,218,10.1,10.1,18,0.00,,---,0.00,VWS V14.00,2013-04-17 03:49:00,
2013-04-16 20:54:00,65.1,20.6,25.13,SSW,201,8.7,10.5,18,0.00,,---,0.00,VWS V14.00,2013-04-17 03:54:00,
2013-04-16 20:59:00,65.1,20.6,25.13,SW,220,8.1,11.0,18,0.00,,---,0.00,VWS V14.00,2013-04-17 03:59:00,
2013-04-16 21:00:00,65.1,20.6,25.13,SSW,195,8.1,8.7,18,0.00,,---,0.00,VWS V14.00,2013-04-17 04:00:00,
2013-04-16 21:01:00,65.1,20.6,25.13,SSW,201,5.8,8.1,18,0.00,,---,0.00,VWS V14.00,2013-04-17 04:01:00,
2013-04-16 21:02:00,65.1,20.6,25.13,South,186,6.3,6.3,18,0.00,,---,0.00,VWS V14.00,2013-04-17 04:02:00,
2013-04-16 21:07:00,64.8,20.3,25.13,WSW,242,5.8,6.3,18,0.00,,---,0.00,VWS V14.00,2013-04-17 04:07:00,
2013-04-16 21:12:00,64.6,20.1,25.13,SSW,206,10.5,12.8,18,0.00,,---,0.00,VWS V14.00,2013-04-17 04:12:00,
2013-04-16 21:17:00,64.8,20.3,25.13,SSW,205,6.3,8.3,18,0.00,,---,0.00,VWS V14.00,2013-04-17 04:17:00,
2013-04-16 21:22:00,64.8,20.3,25.13,South,190,7.6,11.0,18,0.00,,---,0.00,VWS V14.00,2013-04-17 04:22:00,
2013-04-16 21:27:00,64.8,20.3,25.13,SSW,196,11.0,12.8,18,0.00,,---,0.00,VWS V14.00,2013-04-17 04:27:00,
2013-04-16 21:32:00,64.8,20.3,25.13,SSW,202,10.5,10.5,18,0.00,,---,0.00,VWS V14.00,2013-04-17 04:32:00,
2013-04-16 21:37:00,64.8,20.3,25.13,South,180,8.1,10.5,18,0.00,,---,0.00,VWS V14.00,2013-04-17 04:37:00,
2013-04-16 21:42:00,64.4,20.0,25.13,South,178,6.3,10.1,18,0.00,,---,0.00,VWS V14.00,2013-04-17 04:42:00,
2013-04-16 21:47:00,64.2,19.9,25.13,SW,221,16.3,16.3,18,0.00,,---,0.00,VWS V14.00,2013-04-17 04:47:00,
2013-04-16 21:52:00,64.2,19.9,25.13,SW,230,11.0,11.0,18,0.00,,---,0.00,VWS V14.00,2013-04-17 04:52:00,
2013-04-16 21:57:00,64.2,19.9,25.13,SSW,208,6.3,8.1,18,0.00,,---,0.00,VWS V14.00,2013-04-17 04:57:00,
2013-04-16 22:02:00,64.4,20.0,25.13,WSW,237,16.8,16.8,18,0.00,,---,0.00,VWS V14.00,2013-04-17 05:02:00,
2013-04-16 22:07:00,64.2,19.9,25.13,South,190,15.4,15.9,18,0.00,,---,0.00,VWS V14.00,2013-04-17 05:07:00,
2013-04-16 22:12:00,64.0,19.7,25.13,SW,227,16.8,16.8,18,0.00,,---,0.00,VWS V14.00,2013-04-17 05:12:00,
2013-04-16 22:17:00,63.9,19.6,25.13,SSW,193,10.1,11.0,18,0.00,,---,0.00,VWS V14.00,2013-04-17 05:17:00,
2013-04-16 22:22:00,63.9,19.6,25.13,South,182,10.5,12.8,18,0.00,,---,0.00,VWS V14.00,2013-04-17 05:22:00,
2013-04-16 22:27:00,63.9,19.6,25.13,South,190,10.5,11.9,18,0.00,,---,0.00,VWS V14.00,2013-04-17 05:27:00,
2013-04-16 22:32:00,63.3,19.1,25.13,South,182,12.8,13.2,18,0.00,,---,0.00,VWS V14.00,2013-04-17 05:32:00,
2013-04-16 22:37:00,63.1,19.0,25.13,South,189,7.6,10.5,18,0.00,,---,0.00,VWS V14.00,2013-04-17 05:37:00,
2013-04-16 22:42:00,63.1,19.0,25.13,SSW,203,11.0,16.3,18,0.00,,---,0.00,VWS V14.00,2013-04-17 05:42:00,
2013-04-16 22:47:00,63.1,19.0,25.13,South,171,8.7,14.5,18,0.00,,---,0.00,VWS V14.00,2013-04-17 05:47:00,
2013-04-16 22:52:00,63.1,19.0,25.13,SSW,211,15.4,15.4,18,0.00,,---,0.00,VWS V14.00,2013-04-17 05:52:00,
2013-04-16 22:57:00,63.1,19.0,25.13,South,186,14.5,14.5,18,0.00,,---,0.00,VWS V14.00,2013-04-17 05:57:00,
2013-04-16 23:02:00,63.0,18.8,25.13,WSW,239,13.2,15.0,18,0.00,,---,0.00,VWS V14.00,2013-04-17 06:02:00,
2013-04-16 23:07:00,63.0,18.8,25.13,SSW,202,8.7,12.3,18,0.00,,---,0.00,VWS V14.00,2013-04-17 06:07:00,
2013-04-16 23:12:00,62.8,18.7,25.13,SSW,208,10.5,12.8,18,0.00,,---,0.00,VWS V14.00,2013-04-17 06:12:00,
2013-04-16 23:17:00,62.6,18.5,25.13,South,186,15.0,16.8,18,0.00,,---,0.00,VWS V14.00,2013-04-17 06:17:00,
2013-04-16 23:22:00,62.6,18.5,25.13,SSW,193,10.5,19.7,18,0.00,,---,0.00,VWS V14.00,2013-04-17 06:22:00,
2013-04-16 23:27:00,62.8,18.7,25.13,SSW,193,13.2,16.8,18,0.00,,---,0.00,VWS V14.00,2013-04-17 06:27:00,
2013-04-16 23:32:00,62.8,18.7,25.13,SSW,209,11.9,15.4,18,0.00,,---,0.00,VWS V14.00,2013-04-17 06:32:00,
2013-04-16 23:37:00,62.6,18.5,25.13,South,183,13.2,14.1,18,0.00,,---,0.00,VWS V14.00,2013-04-17 06:37:00,
2013-04-16 23:43:00,62.4,19.6,25.13,SSW,192,7.6,10.5,19,0.00,,---,0.00,VWS V14.00,2013-04-17 06:43:00,
2013-04-16 23:48:00,62.1,19.3,25.13,SSE,151,15.0,15.0,19,0.00,,---,0.00,VWS V14.00,2013-04-17 06:48:00,
2013-04-16 23:53:00,62.1,19.3,25.13,South,191,13.2,13.2,19,0.00,,---,0.00,VWS V14.00,2013-04-17 06:53:00,
2013-04-16 23:58:00,61.9,19.2,25.13,SSW,198,5.8,8.7,19,0.00,,---,0.00,VWS V14.00,2013-04-17 06:58:00,